createdAt,value
2017-01-08T00:00:25.345Z,0
2017-01-08T00:01:24.922Z,0
2017-01-08T00:02:25.294Z,0
2017-01-08T00:03:24.874Z,0
2017-01-08T00:04:24.861Z,0
2017-01-08T00:05:24.835Z,0
2017-01-08T00:06:25.206Z,0
2017-01-08T00:07:24.799Z,0
2017-01-08T00:08:25.161Z,0
2017-01-08T00:09:25.141Z,0
2017-01-08T00:10:24.739Z,0
2017-01-08T00:11:24.695Z,0
2017-01-08T00:12:24.702Z,0
2017-01-08T00:13:24.659Z,0
2017-01-08T00:14:24.621Z,0
2017-01-08T00:15:24.603Z,0
2017-01-08T00:16:24.577Z,0
2017-01-08T00:17:24.562Z,0
2017-01-08T00:18:24.532Z,0
2017-01-08T00:19:24.521Z,0
2017-01-08T00:20:24.508Z,0
2017-01-08T00:21:24.882Z,0
2017-01-08T00:22:24.451Z,0
2017-01-08T00:23:24.425Z,0
2017-01-08T00:24:24.402Z,0
2017-01-08T00:25:24.391Z,0
2017-01-08T00:26:24.363Z,0
2017-01-08T00:27:24.339Z,0
2017-01-08T00:28:24.312Z,0
2017-01-08T00:29:24.298Z,0
2017-01-08T00:30:24.269Z,0
2017-01-08T00:31:24.251Z,0
2017-01-08T00:32:24.210Z,0
2017-01-08T00:33:24.190Z,0
2017-01-08T00:34:24.168Z,0
2017-01-08T00:35:24.158Z,0
2017-01-08T00:36:24.114Z,0
2017-01-08T00:37:24.105Z,0
2017-01-08T00:38:24.067Z,0
2017-01-08T00:39:24.051Z,0
2017-01-08T00:40:24.024Z,0
2017-01-08T00:41:24.009Z,0
2017-01-08T00:42:23.985Z,0
2017-01-08T00:43:23.961Z,0
2017-01-08T00:44:23.941Z,0
2017-01-08T00:45:23.917Z,0
2017-01-08T00:46:23.899Z,0
2017-01-08T00:47:23.866Z,0
2017-01-08T00:48:23.850Z,0
2017-01-08T00:49:23.831Z,0
2017-01-08T00:50:23.801Z,0
2017-01-08T00:51:23.781Z,0
2017-01-08T00:52:24.152Z,0
2017-01-08T00:53:23.740Z,0
2017-01-08T00:54:23.714Z,0
2017-01-08T00:55:23.904Z,0
2017-01-08T00:56:23.672Z,0
2017-01-08T00:57:23.647Z,0
2017-01-08T00:58:24.027Z,0
2017-01-08T00:59:23.617Z,0
2017-01-08T01:00:23.578Z,0
2017-01-08T01:01:23.556Z,0
2017-01-08T01:02:23.532Z,0
2017-01-08T01:03:23.509Z,0
2017-01-08T01:04:23.492Z,0
2017-01-08T01:05:23.462Z,0
2017-01-08T01:06:23.476Z,0
2017-01-08T01:07:23.421Z,0
2017-01-08T01:08:23.808Z,0
2017-01-08T01:09:23.373Z,0
2017-01-08T01:10:23.365Z,0
2017-01-08T01:11:23.335Z,0
2017-01-08T01:12:23.724Z,0
2017-01-08T01:13:23.328Z,0
2017-01-08T01:14:23.267Z,0
2017-01-08T01:15:23.249Z,0
2017-01-08T01:16:23.226Z,0
2017-01-08T01:17:23.206Z,0
2017-01-08T01:18:23.181Z,0
2017-01-08T01:19:23.162Z,0
2017-01-08T01:20:23.122Z,0
2017-01-08T01:21:23.118Z,0
2017-01-08T01:22:23.095Z,0
2017-01-08T01:23:23.062Z,0
2017-01-08T01:24:23.459Z,0
2017-01-08T01:25:23.015Z,0
2017-01-08T01:26:23.026Z,0
2017-01-08T01:27:22.983Z,0
2017-01-08T01:28:22.947Z,0
2017-01-08T01:29:22.927Z,0
2017-01-08T01:30:22.907Z,0
2017-01-08T01:31:22.888Z,0
2017-01-08T01:32:23.256Z,0
2017-01-08T01:33:22.838Z,0
2017-01-08T01:34:22.814Z,0
2017-01-08T01:35:22.798Z,0
2017-01-08T01:36:22.771Z,0
2017-01-08T01:37:22.748Z,0
2017-01-08T01:38:22.724Z,0
2017-01-08T01:39:22.737Z,0
2017-01-08T01:40:22.684Z,0
2017-01-08T01:41:23.084Z,0
2017-01-08T01:42:23.034Z,0
2017-01-08T01:43:22.616Z,0
2017-01-08T01:44:22.595Z,0
2017-01-08T01:45:22.570Z,0
2017-01-08T01:46:22.546Z,0
2017-01-08T01:47:22.547Z,0
2017-01-08T01:48:22.520Z,0
2017-01-08T01:49:22.478Z,0
2017-01-08T01:50:22.460Z,0
2017-01-08T01:51:22.435Z,0
2017-01-08T01:52:22.414Z,0
2017-01-08T01:53:22.405Z,0
2017-01-08T01:54:22.389Z,0
2017-01-08T01:55:22.349Z,0
2017-01-08T01:56:22.321Z,0
2017-01-08T01:57:22.339Z,0
2017-01-08T01:58:22.298Z,0
2017-01-08T01:59:22.253Z,0
2017-01-08T02:00:22.240Z,0
2017-01-08T02:01:22.214Z,0
2017-01-08T02:02:22.196Z,0
2017-01-08T02:03:22.172Z,0
2017-01-08T02:04:22.150Z,0
2017-01-08T02:05:22.121Z,0
2017-01-08T02:06:22.527Z,0
2017-01-08T02:07:22.081Z,0
2017-01-08T02:08:22.108Z,0
2017-01-08T02:09:22.039Z,0
2017-01-08T02:10:22.020Z,0
2017-01-08T02:11:21.998Z,0
2017-01-08T02:12:21.969Z,0
2017-01-08T02:13:21.995Z,0
2017-01-08T02:14:21.940Z,0
2017-01-08T02:15:21.896Z,0
2017-01-08T02:16:21.884Z,0
2017-01-08T02:17:21.854Z,0
2017-01-08T02:18:22.236Z,0
2017-01-08T02:19:21.814Z,0
2017-01-08T02:20:21.795Z,0
2017-01-08T02:21:21.768Z,0
2017-01-08T02:22:21.748Z,0
2017-01-08T02:23:21.719Z,0
2017-01-08T02:24:21.702Z,0
2017-01-08T02:25:21.679Z,0
2017-01-08T02:26:21.660Z,0
2017-01-08T02:27:21.632Z,0
2017-01-08T02:28:21.613Z,0
2017-01-08T02:29:21.589Z,0
2017-01-08T02:30:21.566Z,0
2017-01-08T02:31:21.543Z,0
2017-01-08T02:32:21.528Z,0
2017-01-08T02:33:21.499Z,0
2017-01-08T02:34:21.505Z,0
2017-01-08T02:35:21.856Z,0
2017-01-08T02:36:21.431Z,0
2017-01-08T02:37:21.414Z,0
2017-01-08T02:38:21.395Z,0
2017-01-08T02:39:21.367Z,0
2017-01-08T02:40:21.347Z,0
2017-01-08T02:41:21.322Z,0
2017-01-08T02:42:21.300Z,0
2017-01-08T02:43:21.279Z,0
2017-01-08T02:44:21.256Z,0
2017-01-08T02:45:21.232Z,0
2017-01-08T02:46:21.213Z,0
2017-01-08T02:47:21.235Z,0
2017-01-08T02:48:21.165Z,0
2017-01-08T02:49:21.144Z,0
2017-01-08T02:50:21.124Z,0
2017-01-08T02:51:21.097Z,0
2017-01-08T02:52:21.075Z,0
2017-01-08T02:53:21.052Z,0
2017-01-08T02:54:21.034Z,0
2017-01-08T02:55:21.210Z,0
2017-01-08T02:56:20.989Z,0
2017-01-08T02:57:20.963Z,0
2017-01-08T02:58:20.941Z,0
2017-01-08T02:59:21.316Z,0
2017-01-08T03:00:20.893Z,0
2017-01-08T03:01:20.881Z,0
2017-01-08T03:02:20.858Z,0
2017-01-08T03:03:20.838Z,0
2017-01-08T03:04:20.809Z,0
2017-01-08T03:05:20.791Z,0
2017-01-08T03:06:20.765Z,0
2017-01-08T03:07:20.740Z,0
2017-01-08T03:08:20.773Z,0
2017-01-08T03:09:20.750Z,0
2017-01-08T03:10:20.673Z,0
2017-01-08T03:11:21.047Z,0
2017-01-08T03:12:20.634Z,0
2017-01-08T03:13:21.004Z,0
2017-01-08T03:14:20.983Z,0
2017-01-08T03:15:20.566Z,0
2017-01-08T03:16:20.540Z,0
2017-01-08T03:17:20.522Z,0
2017-01-08T03:18:20.499Z,0
2017-01-08T03:19:20.476Z,0
2017-01-08T03:20:20.448Z,0
2017-01-08T03:21:21.029Z,0
2017-01-08T03:22:20.463Z,0
2017-01-08T03:23:20.386Z,0
2017-01-08T03:24:20.368Z,0
2017-01-08T03:25:20.374Z,0
2017-01-08T03:26:20.337Z,0
2017-01-08T03:27:20.310Z,0
2017-01-08T03:28:20.278Z,0
2017-01-08T03:29:20.257Z,0
2017-01-08T03:30:20.232Z,0
2017-01-08T03:31:20.207Z,0
2017-01-08T03:32:20.239Z,0
2017-01-08T03:33:20.166Z,0
2017-01-08T03:34:20.148Z,0
2017-01-08T03:35:20.120Z,0
2017-01-08T03:36:20.100Z,0
2017-01-08T03:37:20.077Z,0
2017-01-08T03:38:20.054Z,0
2017-01-08T03:39:20.031Z,0
2017-01-08T03:40:20.008Z,0
2017-01-08T03:41:19.988Z,0
2017-01-08T03:42:19.964Z,0
2017-01-08T03:43:19.943Z,0
2017-01-08T03:44:19.921Z,0
2017-01-08T03:45:19.910Z,0
2017-01-08T03:46:19.879Z,0
2017-01-08T03:47:19.890Z,0
2017-01-08T03:48:19.835Z,0
2017-01-08T03:49:19.818Z,0
2017-01-08T03:50:19.793Z,0
2017-01-08T03:51:19.767Z,0
2017-01-08T03:52:19.802Z,0
2017-01-08T03:53:19.742Z,0
2017-01-08T03:54:19.698Z,0
2017-01-08T03:55:19.685Z,0
2017-01-08T03:56:19.655Z,0
2017-01-08T03:57:19.636Z,0
2017-01-08T03:58:19.619Z,0
2017-01-08T03:59:19.593Z,0
2017-01-08T04:00:19.570Z,0
2017-01-08T04:01:19.549Z,0
2017-01-08T04:02:19.527Z,0
2017-01-08T04:03:19.536Z,0
2017-01-08T04:04:19.501Z,0
2017-01-08T04:05:19.463Z,0
2017-01-08T04:06:19.442Z,0
2017-01-08T04:07:19.418Z,0
2017-01-08T04:08:19.399Z,0
2017-01-08T04:09:19.378Z,0
2017-01-08T04:10:19.381Z,0
2017-01-08T04:11:19.337Z,0
2017-01-08T04:12:19.311Z,0
2017-01-08T04:13:19.312Z,0
2017-01-08T04:14:19.268Z,0
2017-01-08T04:15:19.251Z,0
2017-01-08T04:16:19.218Z,0
2017-01-08T04:17:19.201Z,0
2017-01-08T04:18:19.179Z,0
2017-01-08T04:19:19.158Z,0
2017-01-08T04:20:19.157Z,0
2017-01-08T04:21:19.113Z,0
2017-01-08T04:22:19.109Z,0
2017-01-08T04:23:19.066Z,0
2017-01-08T04:24:19.052Z,0
2017-01-08T04:25:19.023Z,0
2017-01-08T04:26:19.004Z,0
2017-01-08T04:27:18.986Z,0
2017-01-08T04:28:18.963Z,0
2017-01-08T04:29:18.949Z,0
2017-01-08T04:30:18.916Z,0
2017-01-08T04:31:19.006Z,0
2017-01-08T04:32:18.882Z,0
2017-01-08T04:33:18.903Z,0
2017-01-08T04:34:19.231Z,0
2017-01-08T04:35:18.815Z,0
2017-01-08T04:36:18.793Z,0
2017-01-08T04:37:18.768Z,0
2017-01-08T04:38:18.743Z,0
2017-01-08T04:39:18.751Z,0
2017-01-08T04:40:18.702Z,0
2017-01-08T04:41:18.679Z,0
2017-01-08T04:42:18.659Z,0
2017-01-08T04:43:18.642Z,0
2017-01-08T04:44:18.623Z,0
2017-01-08T04:45:18.638Z,0
2017-01-08T04:46:18.581Z,0
2017-01-08T04:47:18.553Z,0
2017-01-08T04:48:18.584Z,0
2017-01-08T04:49:18.505Z,0
2017-01-08T04:50:18.490Z,0
2017-01-08T04:51:18.461Z,0
2017-01-08T04:52:18.442Z,0
2017-01-08T04:53:18.427Z,0
2017-01-08T04:54:18.850Z,0
2017-01-08T04:55:18.593Z,0
2017-01-08T04:56:18.361Z,0
2017-01-08T04:57:18.334Z,0
2017-01-08T04:58:18.364Z,0
2017-01-08T04:59:18.291Z,0
2017-01-08T05:00:18.264Z,0
2017-01-08T05:01:18.305Z,0
2017-01-08T05:02:18.222Z,0
2017-01-08T05:03:18.211Z,0
2017-01-08T05:04:18.180Z,0
2017-01-08T05:05:18.159Z,0
2017-01-08T05:06:18.138Z,0
2017-01-08T05:07:18.117Z,0
2017-01-08T05:08:18.090Z,0
2017-01-08T05:09:18.077Z,0
2017-01-08T05:10:18.052Z,0
2017-01-08T05:11:18.028Z,0
2017-01-08T05:12:18.008Z,0
2017-01-08T05:13:17.990Z,0
2017-01-08T05:14:17.965Z,0
2017-01-08T05:15:17.950Z,0
2017-01-08T05:16:17.915Z,0
2017-01-08T05:17:17.904Z,0
2017-01-08T05:18:17.880Z,0
2017-01-08T05:19:17.904Z,0
2017-01-08T05:20:17.830Z,0
2017-01-08T05:21:17.815Z,0
2017-01-08T05:22:17.788Z,0
2017-01-08T05:23:17.769Z,0
2017-01-08T05:24:17.746Z,0
2017-01-08T05:25:17.727Z,0
2017-01-08T05:26:17.706Z,0
2017-01-08T05:27:18.081Z,0
2017-01-08T05:28:17.665Z,0
2017-01-08T05:29:17.638Z,0
2017-01-08T05:30:17.619Z,0
2017-01-08T05:31:17.592Z,0
2017-01-08T05:32:17.574Z,0
2017-01-08T05:33:17.553Z,0
2017-01-08T05:34:17.526Z,0
2017-01-08T05:35:17.512Z,0
2017-01-08T05:36:17.487Z,0
2017-01-08T05:37:17.513Z,0
2017-01-08T05:38:17.475Z,0
2017-01-08T05:39:17.417Z,0
2017-01-08T05:40:17.399Z,0
2017-01-08T05:41:17.379Z,0
2017-01-08T05:42:17.403Z,0
2017-01-08T05:43:17.335Z,0
2017-01-08T05:44:17.320Z,0
2017-01-08T05:45:17.294Z,0
2017-01-08T05:46:17.270Z,0
2017-01-08T05:47:17.246Z,0
2017-01-08T05:48:17.226Z,0
2017-01-08T05:49:17.206Z,0
2017-01-08T05:50:17.188Z,0
2017-01-08T05:51:17.560Z,0
2017-01-08T05:52:17.144Z,0
2017-01-08T05:53:17.116Z,0
2017-01-08T05:54:17.098Z,0
2017-01-08T05:55:17.075Z,0
2017-01-08T05:56:17.072Z,0
2017-01-08T05:57:17.086Z,0
2017-01-08T05:58:17.004Z,0
2017-01-08T05:59:17.036Z,0
2017-01-08T06:00:16.963Z,0
2017-01-08T06:01:16.941Z,0
2017-01-08T06:02:17.370Z,0
2017-01-08T06:03:16.900Z,0
2017-01-08T06:04:16.928Z,0
2017-01-08T06:05:16.855Z,0
2017-01-08T06:06:16.834Z,0
2017-01-08T06:07:16.823Z,0
2017-01-08T06:08:16.786Z,0
2017-01-08T06:09:16.766Z,0
2017-01-08T06:10:16.747Z,0
2017-01-08T06:11:16.724Z,0
2017-01-08T06:12:16.709Z,0
2017-01-08T06:13:16.688Z,0
2017-01-08T06:14:16.668Z,0
2017-01-08T06:15:16.643Z,0
2017-01-08T06:16:16.622Z,0
2017-01-08T06:17:16.601Z,0
2017-01-08T06:18:16.584Z,0
2017-01-08T06:19:16.560Z,0
2017-01-08T06:20:16.533Z,0
2017-01-08T06:21:16.517Z,0
2017-01-08T06:22:16.508Z,0
2017-01-08T06:23:16.489Z,0
2017-01-08T06:24:16.458Z,0
2017-01-08T06:25:16.429Z,0
2017-01-08T06:26:16.402Z,0
2017-01-08T06:27:16.396Z,0
2017-01-08T06:28:16.360Z,0
2017-01-08T06:29:16.342Z,0
2017-01-08T06:30:16.318Z,0
2017-01-08T06:31:16.693Z,0
2017-01-08T06:32:16.277Z,0
2017-01-08T06:33:16.255Z,0
2017-01-08T06:34:16.240Z,0
2017-01-08T06:35:16.221Z,0
2017-01-08T06:36:16.200Z,0
2017-01-08T06:37:16.169Z,0
2017-01-08T06:38:16.162Z,0
2017-01-08T06:39:16.132Z,0
2017-01-08T06:40:16.128Z,0
2017-01-08T06:41:16.510Z,0
2017-01-08T06:42:16.465Z,0
2017-01-08T06:43:16.047Z,0
2017-01-08T06:44:16.021Z,0
2017-01-08T06:45:16.007Z,0
2017-01-08T06:46:15.973Z,0
2017-01-08T06:47:15.960Z,0
2017-01-08T06:48:15.932Z,0
2017-01-08T06:49:15.914Z,0
2017-01-08T06:50:15.893Z,0
2017-01-08T06:51:15.875Z,0
2017-01-08T06:52:15.850Z,0
2017-01-08T06:53:15.830Z,0
2017-01-08T06:54:15.807Z,0
2017-01-08T06:55:15.995Z,0
2017-01-08T06:56:15.768Z,0
2017-01-08T06:57:15.742Z,0
2017-01-08T06:58:15.725Z,0
2017-01-08T06:59:15.701Z,0
2017-01-08T07:00:16.083Z,4
2017-01-08T07:01:15.665Z,4
2017-01-08T07:02:15.639Z,0
2017-01-08T07:03:15.617Z,4
2017-01-08T07:04:15.599Z,4
2017-01-08T07:05:15.584Z,0
2017-01-08T07:06:15.556Z,4
2017-01-08T07:07:15.535Z,4
2017-01-08T07:08:15.533Z,8
2017-01-08T07:09:15.492Z,8
2017-01-08T07:10:15.861Z,8
2017-01-08T07:11:15.441Z,8
2017-01-08T07:12:15.426Z,12
2017-01-08T07:13:15.408Z,12
2017-01-08T07:14:15.381Z,16
2017-01-08T07:15:15.369Z,20
2017-01-08T07:16:15.337Z,20
2017-01-08T07:17:15.313Z,24
2017-01-08T07:18:15.297Z,24
2017-01-08T07:19:15.672Z,24
2017-01-08T07:20:15.253Z,32
2017-01-08T07:21:15.231Z,36
2017-01-08T07:22:15.209Z,36
2017-01-08T07:23:15.186Z,48
2017-01-08T07:24:15.168Z,44
2017-01-08T07:25:15.143Z,56
2017-01-08T07:26:15.122Z,60
2017-01-08T07:27:15.107Z,68
2017-01-08T07:28:15.079Z,72
2017-01-08T07:29:15.461Z,88
2017-01-08T07:30:15.039Z,100
2017-01-08T07:31:15.038Z,108
2017-01-08T07:32:14.993Z,116
2017-01-08T07:33:15.000Z,112
2017-01-08T07:34:14.955Z,124
2017-01-08T07:35:14.935Z,140
2017-01-08T07:36:14.907Z,152
2017-01-08T07:37:14.886Z,144
2017-01-08T07:38:14.873Z,160
2017-01-08T07:39:14.847Z,180
2017-01-08T07:40:14.827Z,192
2017-01-08T07:41:14.803Z,204
2017-01-08T07:42:14.783Z,216
2017-01-08T07:43:14.760Z,220
2017-01-08T07:44:14.737Z,216
2017-01-08T07:45:14.715Z,220
2017-01-08T07:46:14.750Z,236
2017-01-08T07:47:14.681Z,248
2017-01-08T07:48:14.652Z,268
2017-01-08T07:49:14.639Z,288
2017-01-08T07:50:14.613Z,316
2017-01-08T07:51:14.593Z,336
2017-01-08T07:52:14.585Z,352
2017-01-08T07:53:14.567Z,332
2017-01-08T07:54:14.934Z,288
2017-01-08T07:55:14.559Z,320
2017-01-08T07:56:14.542Z,344
2017-01-08T07:57:14.465Z,352
2017-01-08T07:58:14.445Z,360
2017-01-08T07:59:14.423Z,356
2017-01-08T08:00:14.403Z,344
2017-01-08T08:01:14.380Z,380
2017-01-08T08:02:14.356Z,428
2017-01-08T08:03:14.338Z,432
2017-01-08T08:04:14.318Z,456
2017-01-08T08:05:14.302Z,516
2017-01-08T08:06:14.325Z,516
2017-01-08T08:07:14.252Z,492
2017-01-08T08:08:14.246Z,468
2017-01-08T08:09:14.208Z,472
2017-01-08T08:10:14.191Z,552
2017-01-08T08:11:14.171Z,636
2017-01-08T08:12:14.146Z,632
2017-01-08T08:13:14.277Z,684
2017-01-08T08:14:14.106Z,620
2017-01-08T08:15:14.129Z,556
2017-01-08T08:16:14.063Z,608
2017-01-08T08:17:14.073Z,696
2017-01-08T08:18:14.022Z,736
2017-01-08T08:19:13.999Z,708
2017-01-08T08:20:14.028Z,684
2017-01-08T08:21:13.952Z,680
2017-01-08T08:22:13.933Z,724
2017-01-08T08:23:13.941Z,836
2017-01-08T08:24:13.903Z,848
2017-01-08T08:25:13.874Z,856
2017-01-08T08:26:13.851Z,748
2017-01-08T08:27:13.836Z,704
2017-01-08T08:28:13.818Z,812
2017-01-08T08:29:13.790Z,800
2017-01-08T08:30:13.764Z,824
2017-01-08T08:31:13.749Z,940
2017-01-08T08:32:13.724Z,1024
2017-01-08T08:33:13.717Z,1060
2017-01-08T08:34:13.695Z,916
2017-01-08T08:35:13.668Z,952
2017-01-08T08:36:13.692Z,1044
2017-01-08T08:37:13.627Z,1016
2017-01-08T08:38:13.604Z,956
2017-01-08T08:39:13.630Z,976
2017-01-08T08:40:13.715Z,992
2017-01-08T08:41:13.940Z,1040
2017-01-08T08:42:13.518Z,1176
2017-01-08T08:43:13.510Z,1160
2017-01-08T08:44:13.482Z,1148
2017-01-08T08:45:13.464Z,1076
2017-01-08T08:46:13.436Z,1020
2017-01-08T08:47:13.621Z,1072
2017-01-08T08:48:13.389Z,1132
2017-01-08T08:49:13.422Z,1168
2017-01-08T08:50:13.360Z,1192
2017-01-08T08:51:13.384Z,1208
2017-01-08T08:52:13.317Z,1220
2017-01-08T08:53:13.715Z,1260
2017-01-08T08:54:13.271Z,1284
2017-01-08T08:55:13.256Z,1268
2017-01-08T08:56:13.492Z,1320
2017-01-08T08:57:13.214Z,1492
2017-01-08T08:58:13.190Z,1564
2017-01-08T08:59:13.187Z,1580
2017-01-08T09:00:13.152Z,1620
2017-01-08T09:01:13.134Z,1736
2017-01-08T09:02:13.111Z,1936
2017-01-08T09:03:13.087Z,1988
2017-01-08T09:04:13.071Z,2104
2017-01-08T09:05:13.044Z,2312
2017-01-08T09:06:13.052Z,2288
2017-01-08T09:07:13.038Z,2144
2017-01-08T09:08:12.990Z,2028
2017-01-08T09:09:12.964Z,1948
2017-01-08T09:10:12.972Z,1960
2017-01-08T09:11:12.927Z,1908
2017-01-08T09:12:12.894Z,1944
2017-01-08T09:13:12.880Z,1960
2017-01-08T09:14:12.867Z,1992
2017-01-08T09:15:12.841Z,2092
2017-01-08T09:16:12.822Z,2208
2017-01-08T09:17:12.798Z,2080
2017-01-08T09:18:12.775Z,1920
2017-01-08T09:19:12.765Z,1936
2017-01-08T09:20:12.791Z,2284
2017-01-08T09:21:12.723Z,2372
2017-01-08T09:22:12.701Z,2244
2017-01-08T09:23:12.731Z,2164
2017-01-08T09:24:12.659Z,2040
2017-01-08T09:25:12.642Z,2072
2017-01-08T09:26:12.655Z,2248
2017-01-08T09:27:12.615Z,2312
2017-01-08T09:28:12.578Z,2316
2017-01-08T09:29:12.559Z,2596
2017-01-08T09:30:12.590Z,2772
2017-01-08T09:31:12.536Z,2708
2017-01-08T09:32:12.504Z,2716
2017-01-08T09:33:12.486Z,2740
2017-01-08T09:34:12.458Z,2576
2017-01-08T09:35:12.463Z,2636
2017-01-08T09:36:12.415Z,2704
2017-01-08T09:37:12.420Z,2956
2017-01-08T09:38:12.382Z,2868
2017-01-08T09:39:12.358Z,2600
2017-01-08T09:40:12.343Z,2284
2017-01-08T09:41:12.318Z,2300
2017-01-08T09:42:12.299Z,2676
2017-01-08T09:43:12.306Z,2852
2017-01-08T09:44:12.261Z,2804
2017-01-08T09:45:12.235Z,2976
2017-01-08T09:46:12.227Z,2916
2017-01-08T09:47:12.203Z,2820
2017-01-08T09:48:12.181Z,2868
2017-01-08T09:49:12.220Z,2956
2017-01-08T09:50:12.139Z,2968
2017-01-08T09:51:12.121Z,2848
2017-01-08T09:52:12.492Z,2636
2017-01-08T09:53:12.081Z,2588
2017-01-08T09:54:12.063Z,2704
2017-01-08T09:55:12.041Z,2784
2017-01-08T09:56:12.035Z,2876
2017-01-08T09:57:12.000Z,2776
2017-01-08T09:58:12.029Z,2552
2017-01-08T09:59:11.964Z,2488
2017-01-08T10:00:11.943Z,2624
2017-01-08T10:01:12.005Z,2816
2017-01-08T10:02:11.902Z,2644
2017-01-08T10:03:11.880Z,2432
2017-01-08T10:04:11.899Z,2216
2017-01-08T10:05:11.847Z,2176
2017-01-08T10:06:11.822Z,2368
2017-01-08T10:07:11.800Z,2580
2017-01-08T10:08:11.790Z,2756
2017-01-08T10:09:11.764Z,2844
2017-01-08T10:10:11.751Z,2800
2017-01-08T10:11:11.730Z,2820
2017-01-08T10:12:11.713Z,2852
2017-01-08T10:13:11.756Z,2800
2017-01-08T10:14:11.668Z,2788
2017-01-08T10:15:11.646Z,2704
2017-01-08T10:16:11.626Z,2628
2017-01-08T10:17:11.652Z,2496
2017-01-08T10:18:11.583Z,2448
2017-01-08T10:19:11.579Z,2484
2017-01-08T10:20:11.952Z,2600
2017-01-08T10:21:11.532Z,2672
2017-01-08T10:22:11.521Z,2636
2017-01-08T10:23:11.941Z,2640
2017-01-08T10:24:11.517Z,2416
2017-01-08T10:25:11.871Z,2328
2017-01-08T10:26:11.448Z,2240
2017-01-08T10:27:11.425Z,2248
2017-01-08T10:28:11.399Z,2440
2017-01-08T10:29:11.428Z,2336
2017-01-08T10:30:11.358Z,2184
2017-01-08T10:31:11.341Z,2380
2017-01-08T10:32:11.320Z,2556
2017-01-08T10:33:11.298Z,2360
2017-01-08T10:34:11.273Z,2412
2017-01-08T10:35:11.261Z,2468
2017-01-08T10:36:11.267Z,2672
2017-01-08T10:37:11.218Z,2444
2017-01-08T10:38:11.201Z,2564
2017-01-08T10:39:11.206Z,2392
2017-01-08T10:40:11.164Z,2444
2017-01-08T10:41:11.146Z,2532
2017-01-08T10:42:11.119Z,2700
2017-01-08T10:43:11.185Z,2868
2017-01-08T10:44:11.087Z,2912
2017-01-08T10:45:11.061Z,2696
2017-01-08T10:46:11.046Z,2496
2017-01-08T10:47:11.026Z,2472
2017-01-08T10:48:11.229Z,2532
2017-01-08T10:49:10.997Z,2708
2017-01-08T10:50:10.967Z,2684
2017-01-08T10:51:11.353Z,2592
2017-01-08T10:52:10.924Z,2568
2017-01-08T10:53:10.945Z,2488
2017-01-08T10:54:10.896Z,2360
2017-01-08T10:55:10.872Z,2480
2017-01-08T10:56:11.059Z,2652
2017-01-08T10:57:10.826Z,2704
2017-01-08T10:58:10.820Z,2756
2017-01-08T10:59:10.799Z,2748
2017-01-08T11:00:10.777Z,2948
2017-01-08T11:01:10.755Z,3000
2017-01-08T11:02:10.737Z,3132
2017-01-08T11:03:10.727Z,3068
2017-01-08T11:04:10.702Z,3184
2017-01-08T11:05:10.713Z,3524
2017-01-08T11:06:10.660Z,3548
2017-01-08T11:07:10.646Z,3788
2017-01-08T11:08:10.621Z,3972
2017-01-08T11:09:10.609Z,3716
2017-01-08T11:10:10.993Z,3660
2017-01-08T11:11:10.570Z,3516
2017-01-08T11:12:10.541Z,3828
2017-01-08T11:13:10.521Z,3788
2017-01-08T11:14:10.512Z,3604
2017-01-08T11:15:10.484Z,3416
2017-01-08T11:16:10.527Z,3448
2017-01-08T11:17:10.481Z,3560
2017-01-08T11:18:10.436Z,3400
2017-01-08T11:19:10.413Z,3404
2017-01-08T11:20:10.391Z,3520
2017-01-08T11:21:10.823Z,3456
2017-01-08T11:22:10.356Z,3284
2017-01-08T11:23:10.361Z,3248
2017-01-08T11:24:10.318Z,3784
2017-01-08T11:25:10.298Z,4004
2017-01-08T11:26:10.280Z,3924
2017-01-08T11:27:10.669Z,3764
2017-01-08T11:28:10.245Z,3804
2017-01-08T11:29:10.276Z,3544
2017-01-08T11:30:10.205Z,3536
2017-01-08T11:31:10.196Z,4136
2017-01-08T11:32:10.174Z,6004
2017-01-08T11:33:10.943Z,5372
2017-01-08T11:34:10.131Z,4428
2017-01-08T11:35:10.126Z,3752
2017-01-08T11:36:10.490Z,3708
2017-01-08T11:37:10.092Z,4280
2017-01-08T11:38:10.090Z,4568
2017-01-08T11:39:10.444Z,4484
2017-01-08T11:40:10.019Z,4152
2017-01-08T11:41:10.012Z,3996
2017-01-08T11:42:09.982Z,4588
2017-01-08T11:43:09.966Z,4148
2017-01-08T11:44:09.946Z,4288
2017-01-08T11:45:09.926Z,4156
2017-01-08T11:46:09.903Z,3672
2017-01-08T11:47:09.885Z,3288
2017-01-08T11:48:09.866Z,3276
2017-01-08T11:49:09.872Z,2924
2017-01-08T11:50:09.883Z,2668
2017-01-08T11:51:09.832Z,2712
2017-01-08T11:52:09.799Z,2344
2017-01-08T11:53:09.828Z,1988
2017-01-08T11:54:09.760Z,2068
2017-01-08T11:55:09.741Z,2088
2017-01-08T11:56:09.774Z,2256
2017-01-08T11:57:09.702Z,3024
2017-01-08T11:58:09.686Z,3280
2017-01-08T11:59:09.664Z,2896
2017-01-08T12:00:09.646Z,3288
2017-01-08T12:01:10.031Z,4200
2017-01-08T12:02:09.614Z,4668
2017-01-08T12:03:09.594Z,4860
2017-01-08T12:04:09.573Z,4856
2017-01-08T12:05:09.554Z,4708
2017-01-08T12:06:09.579Z,4444
2017-01-08T12:07:09.517Z,3984
2017-01-08T12:08:09.498Z,3764
2017-01-08T12:09:09.480Z,3800
2017-01-08T12:10:09.457Z,3636
2017-01-08T12:11:09.463Z,3348
2017-01-08T12:12:09.417Z,3072
2017-01-08T12:13:09.396Z,3220
2017-01-08T12:14:09.406Z,3352
2017-01-08T12:15:09.366Z,3236
2017-01-08T12:16:09.347Z,3368
2017-01-08T12:17:09.322Z,3476
2017-01-08T12:18:09.314Z,3216
2017-01-08T12:19:09.290Z,3064
2017-01-08T12:20:09.270Z,2912
2017-01-08T12:21:09.253Z,2872
2017-01-08T12:22:09.239Z,2632
2017-01-08T12:23:09.215Z,2576
2017-01-08T12:24:09.200Z,2384
2017-01-08T12:25:09.185Z,2376
2017-01-08T12:26:09.159Z,2524
2017-01-08T12:27:09.152Z,2292
2017-01-08T12:28:09.123Z,2040
2017-01-08T12:29:09.105Z,1868
2017-01-08T12:30:09.085Z,1888
2017-01-08T12:31:09.069Z,1936
2017-01-08T12:32:09.093Z,2284
2017-01-08T12:33:09.026Z,2556
2017-01-08T12:34:09.008Z,2608
2017-01-08T12:35:08.988Z,2424
2017-01-08T12:36:08.978Z,2064
2017-01-08T12:37:08.962Z,1780
2017-01-08T12:38:08.933Z,1672
2017-01-08T12:39:08.921Z,1604
2017-01-08T12:40:08.895Z,1564
2017-01-08T12:41:09.277Z,1644
2017-01-08T12:42:08.859Z,1644
2017-01-08T12:43:08.840Z,1584
2017-01-08T12:44:08.824Z,1596
2017-01-08T12:45:08.805Z,1556
2017-01-08T12:46:08.832Z,1492
2017-01-08T12:47:08.766Z,1416
2017-01-08T12:48:08.746Z,1324
2017-01-08T12:49:08.732Z,1260
2017-01-08T12:50:08.707Z,1272
2017-01-08T12:51:08.689Z,1372
2017-01-08T12:52:09.067Z,1448
2017-01-08T12:53:08.649Z,1476
2017-01-08T12:54:08.624Z,1448
2017-01-08T12:55:08.613Z,1636
2017-01-08T12:56:08.796Z,1888
2017-01-08T12:57:08.594Z,2072
2017-01-08T12:58:08.606Z,2268
2017-01-08T12:59:08.538Z,2324
2017-01-08T13:00:08.524Z,2352
2017-01-08T13:01:08.495Z,2460
2017-01-08T13:02:08.959Z,2516
2017-01-08T13:03:08.458Z,2416
2017-01-08T13:04:08.436Z,2360
2017-01-08T13:05:08.810Z,2292
2017-01-08T13:06:08.397Z,2392
2017-01-08T13:07:08.379Z,2412
2017-01-08T13:08:08.755Z,2344
2017-01-08T13:09:08.341Z,2376
2017-01-08T13:10:08.324Z,2520
2017-01-08T13:11:08.357Z,2532
2017-01-08T13:12:08.295Z,2612
2017-01-08T13:13:08.280Z,2780
2017-01-08T13:14:08.250Z,2692
2017-01-08T13:15:08.242Z,2684
2017-01-08T13:16:08.625Z,2700
2017-01-08T13:17:08.592Z,2632
2017-01-08T13:18:08.187Z,2700
2017-01-08T13:19:08.177Z,2576
2017-01-08T13:20:08.937Z,2556
2017-01-08T13:21:08.523Z,2756
2017-01-08T13:22:08.500Z,2832
2017-01-08T13:23:08.078Z,2832
2017-01-08T13:24:08.056Z,2752
2017-01-08T13:25:08.444Z,2640
2017-01-08T13:26:08.020Z,2696
2017-01-08T13:27:08.008Z,2820
2017-01-08T13:28:07.986Z,2944
2017-01-08T13:29:07.970Z,2904
2017-01-08T13:30:07.948Z,2864
2017-01-08T13:31:08.368Z,2812
2017-01-08T13:32:07.912Z,2792
2017-01-08T13:33:08.278Z,2836
2017-01-08T13:34:08.271Z,2772
2017-01-08T13:35:07.845Z,2812
2017-01-08T13:36:07.859Z,2916
2017-01-08T13:37:08.196Z,2988
2017-01-08T13:38:07.809Z,3116
2017-01-08T13:39:07.811Z,3108
2017-01-08T13:40:07.955Z,3072
2017-01-08T13:41:08.540Z,2772
2017-01-08T13:42:07.722Z,2548
2017-01-08T13:43:07.698Z,2456
2017-01-08T13:44:07.695Z,2640
2017-01-08T13:45:07.656Z,2944
2017-01-08T13:46:07.655Z,2912
2017-01-08T13:47:07.609Z,2764
2017-01-08T13:48:07.604Z,2720
2017-01-08T13:49:07.990Z,2564
2017-01-08T13:50:07.947Z,2644
2017-01-08T13:51:07.937Z,2748
2017-01-08T13:52:07.531Z,2740
2017-01-08T13:53:07.907Z,2576
2017-01-08T13:54:07.488Z,2516
2017-01-08T13:55:07.485Z,2548
2017-01-08T13:56:07.446Z,2472
2017-01-08T13:57:07.429Z,2480
2017-01-08T13:58:07.412Z,2512
2017-01-08T13:59:07.390Z,2648
2017-01-08T14:00:07.369Z,2608
2017-01-08T14:01:07.356Z,2592
2017-01-08T14:02:07.331Z,2344
2017-01-08T14:03:07.308Z,2440
2017-01-08T14:04:07.293Z,2524
2017-01-08T14:05:07.684Z,2688